Terminal Aerodrome Forecast
Issued by NWS Portland, OR

Home | Current Version | Previous Version | Text Only | Print | Product List | Glossary On
Versions: 1 2 3 4 5 6 7 8 9 10 11 12 13 14 15 16
000
FTUS46 KPQR 300520
TAFHIO
TAF
KHIO 300520Z 3006/0106 34005KT P6SM SCT150
     FM300800 31002KT P6SM SCT050
     FM301500 00000KT P6SM SCT015
     FM301900 18005KT P6SM SCT080 BKN150=

USA.gov is the U.S. government's official web portal to all federal, state and local government web resources and services.